sensor_id;sensor_type;location;lat;lon;timestamp;P1;durP1;ratioP1;P2;durP2;ratioP2
54589;SDS011;40485;53.172;5.416;2022-09-09T00:00:38;8.07;;;4.60;;
54589;SDS011;40485;53.172;5.416;2022-09-09T00:03:12;7.55;;;4.65;;
54589;SDS011;40485;53.172;5.416;2022-09-09T00:06:04;11.50;;;4.85;;
54589;SDS011;40485;53.172;5.416;2022-09-09T00:11:18;7.38;;;5.00;;
54589;SDS011;40485;53.172;5.416;2022-09-09T00:13:52;8.73;;;4.65;;
54589;SDS011;40485;53.172;5.416;2022-09-09T00:16:24;9.50;;;5.40;;
54589;SDS011;40485;53.172;5.416;2022-09-09T00:18:59;9.57;;;5.38;;
54589;SDS011;40485;53.172;5.416;2022-09-09T00:21:36;9.02;;;5.75;;
54589;SDS011;40485;53.172;5.416;2022-09-09T00:26:52;10.40;;;6.07;;
54589;SDS011;40485;53.172;5.416;2022-09-09T00:29:45;7.70;;;6.25;;
54589;SDS011;40485;53.172;5.416;2022-09-09T00:32:21;10.32;;;5.90;;
54589;SDS011;40485;53.172;5.416;2022-09-09T00:34:55;8.90;;;6.18;;
54589;SDS011;40485;53.172;5.416;2022-09-09T00:37:28;10.18;;;6.80;;
54589;SDS011;40485;53.172;5.416;2022-09-09T00:39:57;10.00;;;5.70;;
54589;SDS011;40485;53.172;5.416;2022-09-09T00:45:12;11.25;;;6.13;;
54589;SDS011;40485;53.172;5.416;2022-09-09T00:47:46;9.18;;;6.80;;
54589;SDS011;40485;53.172;5.416;2022-09-09T00:58:06;12.77;;;6.40;;
54589;SDS011;40485;53.172;5.416;2022-09-09T01:00:50;9.18;;;6.15;;
54589;SDS011;40485;53.172;5.416;2022-09-09T01:09:04;10.85;;;6.13;;
54589;SDS011;40485;53.172;5.416;2022-09-09T01:11:36;10.93;;;5.43;;
54589;SDS011;40485;53.172;5.416;2022-09-09T01:17:08;9.00;;;5.38;;
54589;SDS011;40485;53.172;5.416;2022-09-09T01:24:38;8.45;;;5.93;;
54589;SDS011;40485;53.172;5.416;2022-09-09T01:27:18;12.20;;;6.30;;
54589;SDS011;40485;53.172;5.416;2022-09-09T01:29:45;10.52;;;6.30;;
54589;SDS011;40485;53.172;5.416;2022-09-09T01:35:07;9.35;;;5.78;;
54589;SDS011;40485;53.172;5.416;2022-09-09T01:37:35;12.60;;;6.53;;
54589;SDS011;40485;53.172;5.416;2022-09-09T01:40:01;13.00;;;7.45;;
54589;SDS011;40485;53.172;5.416;2022-09-09T01:42:27;8.60;;;6.07;;
54589;SDS011;40485;53.172;5.416;2022-09-09T01:44:53;12.05;;;6.43;;
54589;SDS011;40485;53.172;5.416;2022-09-09T01:47:19;13.95;;;6.60;;
54589;SDS011;40485;53.172;5.416;2022-09-09T01:49:45;10.52;;;5.95;;
54589;SDS011;40485;53.172;5.416;2022-09-09T01:52:10;10.98;;;6.53;;
54589;SDS011;40485;53.172;5.416;2022-09-09T01:54:37;9.40;;;6.45;;
54589;SDS011;40485;53.172;5.416;2022-09-09T02:02:36;11.25;;;6.75;;
54589;SDS011;40485;53.172;5.416;2022-09-09T02:07:42;13.30;;;6.22;;
54589;SDS011;40485;53.172;5.416;2022-09-09T02:10:16;12.77;;;7.75;;
54589;SDS011;40485;53.172;5.416;2022-09-09T02:12:47;15.23;;;7.15;;
54589;SDS011;40485;53.172;5.416;2022-09-09T02:15:29;8.82;;;6.47;;
54589;SDS011;40485;53.172;5.416;2022-09-09T02:17:59;10.75;;;7.18;;
54589;SDS011;40485;53.172;5.416;2022-09-09T02:20:31;13.13;;;7.13;;
54589;SDS011;40485;53.172;5.416;2022-09-09T02:22:58;10.70;;;7.28;;
54589;SDS011;40485;53.172;5.416;2022-09-09T02:25:26;14.85;;;7.88;;
54589;SDS011;40485;53.172;5.416;2022-09-09T02:27:54;14.40;;;7.78;;
54589;SDS011;40485;53.172;5.416;2022-09-09T02:30:22;12.20;;;6.85;;
54589;SDS011;40485;53.172;5.416;2022-09-09T02:32:48;10.13;;;6.70;;
54589;SDS011;40485;53.172;5.416;2022-09-09T02:35:19;15.55;;;7.35;;
54589;SDS011;40485;53.172;5.416;2022-09-09T02:37:49;10.48;;;6.88;;
54589;SDS011;40485;53.172;5.416;2022-09-09T02:40:17;13.85;;;7.13;;
54589;SDS011;40485;53.172;5.416;2022-09-09T02:42:47;14.65;;;7.75;;
54589;SDS011;40485;53.172;5.416;2022-09-09T02:45:15;12.23;;;7.00;;
54589;SDS011;40485;53.172;5.416;2022-09-09T02:47:49;10.95;;;7.60;;
54589;SDS011;40485;53.172;5.416;2022-09-09T02:50:39;13.98;;;6.97;;
54589;SDS011;40485;53.172;5.416;2022-09-09T02:53:16;9.25;;;6.53;;
54589;SDS011;40485;53.172;5.416;2022-09-09T02:58:12;9.48;;;7.05;;
54589;SDS011;40485;53.172;5.416;2022-09-09T03:00:42;10.02;;;6.35;;
54589;SDS011;40485;53.172;5.416;2022-09-09T03:03:10;9.77;;;6.15;;
54589;SDS011;40485;53.172;5.416;2022-09-09T03:05:36;10.27;;;6.43;;
54589;SDS011;40485;53.172;5.416;2022-09-09T03:08:03;8.50;;;6.35;;
54589;SDS011;40485;53.172;5.416;2022-09-09T03:10:29;11.60;;;6.25;;
54589;SDS011;40485;53.172;5.416;2022-09-09T03:12:54;9.63;;;6.25;;
54589;SDS011;40485;53.172;5.416;2022-09-09T03:15:20;13.55;;;6.03;;
54589;SDS011;40485;53.172;5.416;2022-09-09T03:17:46;9.20;;;6.55;;
54589;SDS011;40485;53.172;5.416;2022-09-09T03:20:12;9.52;;;5.60;;
54589;SDS011;40485;53.172;5.416;2022-09-09T03:22:38;10.13;;;6.22;;
54589;SDS011;40485;53.172;5.416;2022-09-09T03:25:03;9.85;;;5.20;;
54589;SDS011;40485;53.172;5.416;2022-09-09T03:27:30;9.85;;;5.97;;
54589;SDS011;40485;53.172;5.416;2022-09-09T03:29:56;11.27;;;6.38;;
54589;SDS011;40485;53.172;5.416;2022-09-09T03:32:22;11.10;;;6.28;;
54589;SDS011;40485;53.172;5.416;2022-09-09T03:34:50;8.15;;;6.07;;
54589;SDS011;40485;53.172;5.416;2022-09-09T03:37:17;9.55;;;6.28;;
54589;SDS011;40485;53.172;5.416;2022-09-09T03:39:45;8.68;;;6.43;;
54589;SDS011;40485;53.172;5.416;2022-09-09T03:42:14;12.85;;;6.40;;
54589;SDS011;40485;53.172;5.416;2022-09-09T03:44:43;9.35;;;6.70;;
54589;SDS011;40485;53.172;5.416;2022-09-09T03:47:10;12.27;;;7.15;;
54589;SDS011;40485;53.172;5.416;2022-09-09T03:49:35;10.48;;;7.07;;
54589;SDS011;40485;53.172;5.416;2022-09-09T03:52:01;10.65;;;7.15;;
54589;SDS011;40485;53.172;5.416;2022-09-09T03:54:27;9.65;;;6.95;;
54589;SDS011;40485;53.172;5.416;2022-09-09T03:56:52;9.60;;;6.53;;
54589;SDS011;40485;53.172;5.416;2022-09-09T03:59:18;10.07;;;6.43;;
54589;SDS011;40485;53.172;5.416;2022-09-09T04:01:45;12.82;;;6.50;;
54589;SDS011;40485;53.172;5.416;2022-09-09T04:04:12;8.95;;;6.25;;
54589;SDS011;40485;53.172;5.416;2022-09-09T04:06:38;7.10;;;5.60;;
54589;SDS011;40485;53.172;5.416;2022-09-09T04:09:03;7.13;;;5.57;;
54589;SDS011;40485;53.172;5.416;2022-09-09T04:11:29;13.80;;;7.68;;
54589;SDS011;40485;53.172;5.416;2022-09-09T04:13:54;10.25;;;6.43;;
54589;SDS011;40485;53.172;5.416;2022-09-09T04:16:20;13.68;;;6.43;;
54589;SDS011;40485;53.172;5.416;2022-09-09T04:18:46;11.43;;;6.00;;
54589;SDS011;40485;53.172;5.416;2022-09-09T04:21:12;12.18;;;6.63;;
54589;SDS011;40485;53.172;5.416;2022-09-09T04:23:37;10.95;;;6.40;;
54589;SDS011;40485;53.172;5.416;2022-09-09T04:26:04;13.20;;;7.03;;
54589;SDS011;40485;53.172;5.416;2022-09-09T04:28:31;10.68;;;7.53;;
54589;SDS011;40485;53.172;5.416;2022-09-09T04:31:09;12.32;;;8.57;;
54589;SDS011;40485;53.172;5.416;2022-09-09T04:33:39;12.60;;;9.07;;
54589;SDS011;40485;53.172;5.416;2022-09-09T04:36:05;13.95;;;8.80;;
54589;SDS011;40485;53.172;5.416;2022-09-09T04:38:31;15.02;;;10.07;;
54589;SDS011;40485;53.172;5.416;2022-09-09T04:40:57;14.32;;;10.18;;
54589;SDS011;40485;53.172;5.416;2022-09-09T04:43:23;17.10;;;10.85;;
54589;SDS011;40485;53.172;5.416;2022-09-09T04:45:51;19.20;;;11.10;;
54589;SDS011;40485;53.172;5.416;2022-09-09T04:48:16;17.25;;;12.27;;
54589;SDS011;40485;53.172;5.416;2022-09-09T04:50:43;18.58;;;12.02;;
54589;SDS011;40485;53.172;5.416;2022-09-09T04:53:08;15.30;;;10.98;;
54589;SDS011;40485;53.172;5.416;2022-09-09T04:55:34;17.30;;;12.13;;
54589;SDS011;40485;53.172;5.416;2022-09-09T04:58:07;16.20;;;11.50;;
54589;SDS011;40485;53.172;5.416;2022-09-09T05:00:34;19.67;;;12.05;;
54589;SDS011;40485;53.172;5.416;2022-09-09T05:03:03;19.33;;;12.55;;
54589;SDS011;40485;53.172;5.416;2022-09-09T05:05:30;17.77;;;11.90;;
54589;SDS011;40485;53.172;5.416;2022-09-09T05:08:03;18.13;;;11.10;;
54589;SDS011;40485;53.172;5.416;2022-09-09T05:10:30;19.95;;;11.18;;
54589;SDS011;40485;53.172;5.416;2022-09-09T05:12:56;20.98;;;12.65;;
54589;SDS011;40485;53.172;5.416;2022-09-09T05:15:22;15.30;;;12.00;;
54589;SDS011;40485;53.172;5.416;2022-09-09T05:17:48;18.92;;;12.15;;
54589;SDS011;40485;53.172;5.416;2022-09-09T05:20:13;18.67;;;12.10;;
54589;SDS011;40485;53.172;5.416;2022-09-09T05:22:39;15.18;;;11.70;;
54589;SDS011;40485;53.172;5.416;2022-09-09T05:25:05;16.15;;;11.20;;
54589;SDS011;40485;53.172;5.416;2022-09-09T05:27:33;18.48;;;10.63;;
54589;SDS011;40485;53.172;5.416;2022-09-09T05:29:59;13.95;;;9.57;;
54589;SDS011;40485;53.172;5.416;2022-09-09T05:32:25;13.52;;;8.23;;
54589;SDS011;40485;53.172;5.416;2022-09-09T05:34:51;13.05;;;7.47;;
54589;SDS011;40485;53.172;5.416;2022-09-09T05:37:17;10.50;;;6.82;;
54589;SDS011;40485;53.172;5.416;2022-09-09T05:39:43;9.25;;;6.43;;
54589;SDS011;40485;53.172;5.416;2022-09-09T05:42:09;7.45;;;5.57;;
54589;SDS011;40485;53.172;5.416;2022-09-09T05:44:35;9.18;;;5.03;;
54589;SDS011;40485;53.172;5.416;2022-09-09T05:47:02;8.38;;;5.80;;
54589;SDS011;40485;53.172;5.416;2022-09-09T05:49:27;8.70;;;5.90;;
54589;SDS011;40485;53.172;5.416;2022-09-09T05:51:53;8.43;;;5.78;;
54589;SDS011;40485;53.172;5.416;2022-09-09T05:54:19;10.75;;;6.40;;
54589;SDS011;40485;53.172;5.416;2022-09-09T05:56:44;7.97;;;6.00;;
54589;SDS011;40485;53.172;5.416;2022-09-09T05:59:10;9.10;;;5.93;;
54589;SDS011;40485;53.172;5.416;2022-09-09T06:01:37;9.77;;;6.00;;
54589;SDS011;40485;53.172;5.416;2022-09-09T06:04:07;8.77;;;5.88;;
54589;SDS011;40485;53.172;5.416;2022-09-09T06:06:34;8.88;;;5.93;;
54589;SDS011;40485;53.172;5.416;2022-09-09T06:09:02;8.32;;;6.38;;
54589;SDS011;40485;53.172;5.416;2022-09-09T06:11:31;12.35;;;6.68;;
54589;SDS011;40485;53.172;5.416;2022-09-09T06:14:01;13.35;;;6.95;;
54589;SDS011;40485;53.172;5.416;2022-09-09T06:16:27;11.23;;;7.13;;
54589;SDS011;40485;53.172;5.416;2022-09-09T06:18:55;13.70;;;7.45;;
54589;SDS011;40485;53.172;5.416;2022-09-09T06:21:25;10.45;;;7.38;;
54589;SDS011;40485;53.172;5.416;2022-09-09T06:23:55;9.70;;;7.68;;
54589;SDS011;40485;53.172;5.416;2022-09-09T06:26:29;9.20;;;7.25;;
54589;SDS011;40485;53.172;5.416;2022-09-09T06:29:02;15.20;;;8.18;;
54589;SDS011;40485;53.172;5.416;2022-09-09T06:31:29;13.65;;;8.25;;
54589;SDS011;40485;53.172;5.416;2022-09-09T06:33:57;11.77;;;7.88;;
54589;SDS011;40485;53.172;5.416;2022-09-09T06:36:30;14.38;;;8.20;;
54589;SDS011;40485;53.172;5.416;2022-09-09T06:38:58;13.27;;;8.18;;
54589;SDS011;40485;53.172;5.416;2022-09-09T06:41:24;13.82;;;8.95;;
54589;SDS011;40485;53.172;5.416;2022-09-09T06:43:52;11.95;;;8.52;;
54589;SDS011;40485;53.172;5.416;2022-09-09T06:46:22;13.45;;;9.18;;
54589;SDS011;40485;53.172;5.416;2022-09-09T06:48:48;13.65;;;8.90;;
54589;SDS011;40485;53.172;5.416;2022-09-09T06:51:15;13.70;;;9.00;;
54589;SDS011;40485;53.172;5.416;2022-09-09T06:53:43;11.40;;;8.20;;
54589;SDS011;40485;53.172;5.416;2022-09-09T06:58:39;13.63;;;7.93;;
54589;SDS011;40485;53.172;5.416;2022-09-09T07:01:12;10.98;;;8.60;;
54589;SDS011;40485;53.172;5.416;2022-09-09T07:03:40;11.20;;;8.23;;
54589;SDS011;40485;53.172;5.416;2022-09-09T07:06:08;11.77;;;7.45;;
54589;SDS011;40485;53.172;5.416;2022-09-09T07:08:39;11.20;;;7.45;;
54589;SDS011;40485;53.172;5.416;2022-09-09T07:11:05;11.05;;;7.50;;
54589;SDS011;40485;53.172;5.416;2022-09-09T07:13:33;8.82;;;7.75;;
54589;SDS011;40485;53.172;5.416;2022-09-09T07:16:03;9.77;;;7.70;;
54589;SDS011;40485;53.172;5.416;2022-09-09T07:18:30;8.80;;;6.78;;
54589;SDS011;40485;53.172;5.416;2022-09-09T07:20:55;11.30;;;6.60;;
54589;SDS011;40485;53.172;5.416;2022-09-09T07:23:22;8.07;;;6.18;;
54589;SDS011;40485;53.172;5.416;2022-09-09T07:25:48;9.75;;;7.20;;
54589;SDS011;40485;53.172;5.416;2022-09-09T07:28:14;9.88;;;6.35;;
54589;SDS011;40485;53.172;5.416;2022-09-09T07:30:40;8.60;;;6.43;;
54589;SDS011;40485;53.172;5.416;2022-09-09T07:33:06;10.10;;;7.22;;
54589;SDS011;40485;53.172;5.416;2022-09-09T07:35:32;7.65;;;6.53;;
54589;SDS011;40485;53.172;5.416;2022-09-09T07:37:58;9.20;;;5.88;;
54589;SDS011;40485;53.172;5.416;2022-09-09T07:40:26;15.85;;;6.70;;
54589;SDS011;40485;53.172;5.416;2022-09-09T07:42:51;7.70;;;5.90;;
54589;SDS011;40485;53.172;5.416;2022-09-09T07:45:18;10.35;;;7.28;;
54589;SDS011;40485;53.172;5.416;2022-09-09T07:47:44;7.80;;;6.53;;
54589;SDS011;40485;53.172;5.416;2022-09-09T07:50:10;10.90;;;6.55;;
54589;SDS011;40485;53.172;5.416;2022-09-09T07:52:36;11.68;;;7.47;;
54589;SDS011;40485;53.172;5.416;2022-09-09T07:55:02;11.82;;;7.50;;
54589;SDS011;40485;53.172;5.416;2022-09-09T07:57:29;10.02;;;6.72;;
54589;SDS011;40485;53.172;5.416;2022-09-09T07:59:56;9.07;;;6.45;;
54589;SDS011;40485;53.172;5.416;2022-09-09T08:02:22;9.98;;;6.18;;
54589;SDS011;40485;53.172;5.416;2022-09-09T08:04:49;9.13;;;6.25;;
54589;SDS011;40485;53.172;5.416;2022-09-09T08:07:14;8.52;;;5.88;;
54589;SDS011;40485;53.172;5.416;2022-09-09T08:09:41;9.40;;;5.60;;
54589;SDS011;40485;53.172;5.416;2022-09-09T08:12:07;8.40;;;4.93;;
54589;SDS011;40485;53.172;5.416;2022-09-09T08:14:34;8.80;;;5.22;;
54589;SDS011;40485;53.172;5.416;2022-09-09T08:17:00;7.93;;;4.65;;
54589;SDS011;40485;53.172;5.416;2022-09-09T08:19:25;8.05;;;5.00;;
54589;SDS011;40485;53.172;5.416;2022-09-09T08:21:54;9.15;;;4.88;;
54589;SDS011;40485;53.172;5.416;2022-09-09T08:24:19;8.48;;;5.00;;
54589;SDS011;40485;53.172;5.416;2022-09-09T08:26:46;7.85;;;4.32;;
54589;SDS011;40485;53.172;5.416;2022-09-09T08:29:16;7.63;;;4.90;;
54589;SDS011;40485;53.172;5.416;2022-09-09T08:31:46;7.13;;;4.53;;
54589;SDS011;40485;53.172;5.416;2022-09-09T08:34:13;7.80;;;4.20;;
54589;SDS011;40485;53.172;5.416;2022-09-09T08:36:43;10.00;;;4.40;;
54589;SDS011;40485;53.172;5.416;2022-09-09T08:39:11;10.05;;;4.75;;
54589;SDS011;40485;53.172;5.416;2022-09-09T08:54:44;8.63;;;4.22;;
54589;SDS011;40485;53.172;5.416;2022-09-09T08:57:14;8.88;;;3.97;;
54589;SDS011;40485;53.172;5.416;2022-09-09T09:02:25;10.82;;;4.55;;
54589;SDS011;40485;53.172;5.416;2022-09-09T09:05:26;7.83;;;3.77;;
54589;SDS011;40485;53.172;5.416;2022-09-09T09:08:17;9.48;;;4.05;;
54589;SDS011;40485;53.172;5.416;2022-09-09T09:11:06;8.63;;;3.90;;
54589;SDS011;40485;53.172;5.416;2022-09-09T09:13:43;8.73;;;3.70;;
54589;SDS011;40485;53.172;5.416;2022-09-09T09:19:15;8.95;;;3.67;;
54589;SDS011;40485;53.172;5.416;2022-09-09T09:24:27;11.77;;;3.67;;
54589;SDS011;40485;53.172;5.416;2022-09-09T09:27:15;8.43;;;3.08;;
54589;SDS011;40485;53.172;5.416;2022-09-09T09:29:46;8.13;;;3.70;;
54589;SDS011;40485;53.172;5.416;2022-09-09T09:32:16;7.97;;;3.53;;
54589;SDS011;40485;53.172;5.416;2022-09-09T09:34:48;8.93;;;3.30;;
54589;SDS011;40485;53.172;5.416;2022-09-09T09:37:26;9.75;;;3.80;;
54589;SDS011;40485;53.172;5.416;2022-09-09T09:39:54;8.52;;;3.47;;
54589;SDS011;40485;53.172;5.416;2022-09-09T09:42:19;5.50;;;2.92;;
54589;SDS011;40485;53.172;5.416;2022-09-09T09:44:45;8.95;;;2.88;;
54589;SDS011;40485;53.172;5.416;2022-09-09T09:47:15;8.77;;;2.72;;
54589;SDS011;40485;53.172;5.416;2022-09-09T09:49:51;9.68;;;2.88;;
54589;SDS011;40485;53.172;5.416;2022-09-09T09:52:28;9.37;;;3.20;;
54589;SDS011;40485;53.172;5.416;2022-09-09T09:54:55;6.55;;;3.00;;
54589;SDS011;40485;53.172;5.416;2022-09-09T09:57:25;5.10;;;2.03;;
54589;SDS011;40485;53.172;5.416;2022-09-09T10:02:40;9.30;;;2.97;;
54589;SDS011;40485;53.172;5.416;2022-09-09T10:05:18;8.00;;;3.03;;
54589;SDS011;40485;53.172;5.416;2022-09-09T10:08:03;6.90;;;2.42;;
54589;SDS011;40485;53.172;5.416;2022-09-09T10:10:42;7.35;;;2.63;;
54589;SDS011;40485;53.172;5.416;2022-09-09T10:18:24;7.03;;;1.80;;
54589;SDS011;40485;53.172;5.416;2022-09-09T10:26:38;10.35;;;1.90;;
54589;SDS011;40485;53.172;5.416;2022-09-09T10:32:15;5.38;;;1.92;;
54589;SDS011;40485;53.172;5.416;2022-09-09T10:37:52;17.38;;;2.00;;
54589;SDS011;40485;53.172;5.416;2022-09-09T10:40:32;4.30;;;1.50;;
54589;SDS011;40485;53.172;5.416;2022-09-09T10:49:48;5.65;;;1.60;;
54589;SDS011;40485;53.172;5.416;2022-09-09T10:55:28;10.77;;;1.73;;
54589;SDS011;40485;53.172;5.416;2022-09-09T10:58:04;10.27;;;1.70;;
54589;SDS011;40485;53.172;5.416;2022-09-09T11:03:15;6.03;;;1.25;;
54589;SDS011;40485;53.172;5.416;2022-09-09T11:05:56;9.85;;;1.75;;
54589;SDS011;40485;53.172;5.416;2022-09-09T11:08:26;4.03;;;1.40;;
54589;SDS011;40485;53.172;5.416;2022-09-09T11:11:09;5.20;;;1.52;;
54589;SDS011;40485;53.172;5.416;2022-09-09T11:13:47;8.40;;;1.58;;
54589;SDS011;40485;53.172;5.416;2022-09-09T11:16:19;4.20;;;1.45;;
54589;SDS011;40485;53.172;5.416;2022-09-09T11:18:50;5.00;;;1.20;;
54589;SDS011;40485;53.172;5.416;2022-09-09T11:21:23;7.45;;;1.88;;
54589;SDS011;40485;53.172;5.416;2022-09-09T11:24:04;6.85;;;1.50;;
54589;SDS011;40485;53.172;5.416;2022-09-09T11:26:37;13.55;;;1.50;;
54589;SDS011;40485;53.172;5.416;2022-09-09T11:29:22;6.65;;;1.20;;
54589;SDS011;40485;53.172;5.416;2022-09-09T11:32:22;4.35;;;1.30;;
54589;SDS011;40485;53.172;5.416;2022-09-09T11:35:33;3.92;;;1.10;;
54589;SDS011;40485;53.172;5.416;2022-09-09T11:40:45;4.80;;;1.17;;
54589;SDS011;40485;53.172;5.416;2022-09-09T11:43:19;7.57;;;2.22;;
54589;SDS011;40485;53.172;5.416;2022-09-09T11:45:56;7.85;;;1.52;;
54589;SDS011;40485;53.172;5.416;2022-09-09T11:48:31;11.07;;;1.88;;
54589;SDS011;40485;53.172;5.416;2022-09-09T11:51:00;10.90;;;1.35;;
54589;SDS011;40485;53.172;5.416;2022-09-09T11:53:32;5.50;;;1.02;;
54589;SDS011;40485;53.172;5.416;2022-09-09T11:56:00;7.55;;;1.25;;
54589;SDS011;40485;53.172;5.416;2022-09-09T11:59:24;7.35;;;1.85;;
54589;SDS011;40485;53.172;5.416;2022-09-09T12:01:35;5.63;;;1.48;;
54589;SDS011;40485;53.172;5.416;2022-09-09T12:06:43;7.60;;;1.65;;
54589;SDS011;40485;53.172;5.416;2022-09-09T12:11:45;7.35;;;2.08;;
54589;SDS011;40485;53.172;5.416;2022-09-09T12:14:34;5.35;;;1.98;;
54589;SDS011;40485;53.172;5.416;2022-09-09T12:17:18;5.88;;;1.92;;
54589;SDS011;40485;53.172;5.416;2022-09-09T12:19:47;6.53;;;1.83;;
54589;SDS011;40485;53.172;5.416;2022-09-09T12:22:26;9.35;;;2.28;;
54589;SDS011;40485;53.172;5.416;2022-09-09T12:33:39;7.25;;;1.95;;
54589;SDS011;40485;53.172;5.416;2022-09-09T12:36:12;6.18;;;1.75;;
54589;SDS011;40485;53.172;5.416;2022-09-09T12:38:46;8.43;;;1.70;;
54589;SDS011;40485;53.172;5.416;2022-09-09T12:41:22;6.60;;;1.27;;
54589;SDS011;40485;53.172;5.416;2022-09-09T12:43:49;7.47;;;1.77;;
54589;SDS011;40485;53.172;5.416;2022-09-09T12:46:21;4.88;;;1.50;;
54589;SDS011;40485;53.172;5.416;2022-09-09T12:49:05;6.63;;;1.67;;
54589;SDS011;40485;53.172;5.416;2022-09-09T12:51:48;4.35;;;1.20;;
54589;SDS011;40485;53.172;5.416;2022-09-09T12:54:14;4.53;;;1.50;;
54589;SDS011;40485;53.172;5.416;2022-09-09T12:56:44;7.82;;;1.80;;
54589;SDS011;40485;53.172;5.416;2022-09-09T12:59:21;4.25;;;1.33;;
54589;SDS011;40485;53.172;5.416;2022-09-09T13:02:23;7.13;;;2.08;;
54589;SDS011;40485;53.172;5.416;2022-09-09T13:04:50;5.35;;;2.17;;
54589;SDS011;40485;53.172;5.416;2022-09-09T13:07:18;8.02;;;1.95;;
54589;SDS011;40485;53.172;5.416;2022-09-09T13:09:45;6.60;;;1.58;;
54589;SDS011;40485;53.172;5.416;2022-09-09T13:12:13;11.00;;;1.58;;
54589;SDS011;40485;53.172;5.416;2022-09-09T13:14:44;8.98;;;2.08;;
54589;SDS011;40485;53.172;5.416;2022-09-09T13:17:20;7.13;;;1.75;;
54589;SDS011;40485;53.172;5.416;2022-09-09T13:19:48;8.13;;;1.92;;
54589;SDS011;40485;53.172;5.416;2022-09-09T13:22:20;5.35;;;1.83;;
54589;SDS011;40485;53.172;5.416;2022-09-09T13:24:59;8.88;;;2.28;;
54589;SDS011;40485;53.172;5.416;2022-09-09T13:27:32;4.72;;;1.65;;
54589;SDS011;40485;53.172;5.416;2022-09-09T13:30:01;5.40;;;1.48;;
54589;SDS011;40485;53.172;5.416;2022-09-09T13:32:27;4.68;;;1.40;;
54589;SDS011;40485;53.172;5.416;2022-09-09T13:37:33;6.57;;;1.85;;
54589;SDS011;40485;53.172;5.416;2022-09-09T13:40:02;6.85;;;1.63;;
54589;SDS011;40485;53.172;5.416;2022-09-09T13:42:31;4.57;;;1.30;;
54589;SDS011;40485;53.172;5.416;2022-09-09T13:45:00;3.38;;;1.50;;
54589;SDS011;40485;53.172;5.416;2022-09-09T13:52:51;2.80;;;1.30;;
54589;SDS011;40485;53.172;5.416;2022-09-09T13:55:23;5.97;;;1.52;;
54589;SDS011;40485;53.172;5.416;2022-09-09T13:57:51;3.60;;;1.10;;
54589;SDS011;40485;53.172;5.416;2022-09-09T14:00:17;3.53;;;1.27;;
54589;SDS011;40485;53.172;5.416;2022-09-09T14:02:43;3.63;;;1.10;;
54589;SDS011;40485;53.172;5.416;2022-09-09T14:05:09;2.85;;;1.23;;
54589;SDS011;40485;53.172;5.416;2022-09-09T14:07:36;6.60;;;1.55;;
54589;SDS011;40485;53.172;5.416;2022-09-09T14:10:04;4.50;;;1.33;;
54589;SDS011;40485;53.172;5.416;2022-09-09T14:12:31;4.03;;;1.55;;
54589;SDS011;40485;53.172;5.416;2022-09-09T14:14:56;4.30;;;1.25;;
54589;SDS011;40485;53.172;5.416;2022-09-09T14:17:22;5.97;;;1.27;;
54589;SDS011;40485;53.172;5.416;2022-09-09T14:19:47;2.38;;;1.00;;
54589;SDS011;40485;53.172;5.416;2022-09-09T14:22:13;5.13;;;1.48;;
54589;SDS011;40485;53.172;5.416;2022-09-09T14:24:39;4.63;;;1.45;;
54589;SDS011;40485;53.172;5.416;2022-09-09T14:27:05;3.03;;;0.98;;
54589;SDS011;40485;53.172;5.416;2022-09-09T14:29:31;6.38;;;1.40;;
54589;SDS011;40485;53.172;5.416;2022-09-09T14:31:58;4.13;;;1.30;;
54589;SDS011;40485;53.172;5.416;2022-09-09T14:34:26;4.85;;;1.15;;
54589;SDS011;40485;53.172;5.416;2022-09-09T14:36:51;15.65;;;1.80;;
54589;SDS011;40485;53.172;5.416;2022-09-09T14:39:17;6.28;;;1.50;;
54589;SDS011;40485;53.172;5.416;2022-09-09T14:41:43;5.38;;;1.70;;
54589;SDS011;40485;53.172;5.416;2022-09-09T14:44:08;4.70;;;1.70;;
54589;SDS011;40485;53.172;5.416;2022-09-09T14:46:35;4.55;;;1.48;;
54589;SDS011;40485;53.172;5.416;2022-09-09T14:49:00;2.58;;;1.30;;
54589;SDS011;40485;53.172;5.416;2022-09-09T14:51:26;4.95;;;1.73;;
54589;SDS011;40485;53.172;5.416;2022-09-09T14:53:54;4.53;;;1.48;;
54589;SDS011;40485;53.172;5.416;2022-09-09T14:56:23;6.72;;;1.70;;
54589;SDS011;40485;53.172;5.416;2022-09-09T14:58:54;7.75;;;1.65;;
54589;SDS011;40485;53.172;5.416;2022-09-09T15:01:22;5.00;;;2.13;;
54589;SDS011;40485;53.172;5.416;2022-09-09T15:04:21;9.13;;;2.33;;
54589;SDS011;40485;53.172;5.416;2022-09-09T15:06:41;4.65;;;2.10;;
54589;SDS011;40485;53.172;5.416;2022-09-09T15:09:09;5.47;;;2.05;;
54589;SDS011;40485;53.172;5.416;2022-09-09T15:11:35;4.25;;;2.17;;
54589;SDS011;40485;53.172;5.416;2022-09-09T15:14:03;5.70;;;2.10;;
54589;SDS011;40485;53.172;5.416;2022-09-09T15:16:30;6.47;;;2.35;;
54589;SDS011;40485;53.172;5.416;2022-09-09T15:18:58;7.07;;;1.98;;
54589;SDS011;40485;53.172;5.416;2022-09-09T15:21:25;5.53;;;1.75;;
54589;SDS011;40485;53.172;5.416;2022-09-09T15:23:53;4.18;;;1.90;;
54589;SDS011;40485;53.172;5.416;2022-09-09T15:26:19;4.63;;;1.88;;
54589;SDS011;40485;53.172;5.416;2022-09-09T15:28:46;4.55;;;1.98;;
54589;SDS011;40485;53.172;5.416;2022-09-09T15:31:16;4.28;;;1.67;;
54589;SDS011;40485;53.172;5.416;2022-09-09T15:33:47;4.88;;;1.92;;
54589;SDS011;40485;53.172;5.416;2022-09-09T15:38:46;4.13;;;2.10;;
54589;SDS011;40485;53.172;5.416;2022-09-09T15:41:13;4.43;;;2.33;;
54589;SDS011;40485;53.172;5.416;2022-09-09T15:43:42;4.95;;;2.25;;
54589;SDS011;40485;53.172;5.416;2022-09-09T15:46:26;4.28;;;1.60;;
54589;SDS011;40485;53.172;5.416;2022-09-09T15:48:52;3.67;;;2.05;;
54589;SDS011;40485;53.172;5.416;2022-09-09T15:51:20;3.85;;;1.95;;
54589;SDS011;40485;53.172;5.416;2022-09-09T15:53:45;3.30;;;1.75;;
54589;SDS011;40485;53.172;5.416;2022-09-09T15:56:12;4.03;;;1.80;;
54589;SDS011;40485;53.172;5.416;2022-09-09T15:58:37;3.42;;;1.55;;
54589;SDS011;40485;53.172;5.416;2022-09-09T16:01:03;2.38;;;0.77;;
54589;SDS011;40485;53.172;5.416;2022-09-09T16:03:36;5.30;;;0.88;;
54589;SDS011;40485;53.172;5.416;2022-09-09T16:06:04;4.53;;;0.80;;
54589;SDS011;40485;53.172;5.416;2022-09-09T16:08:31;1.55;;;0.60;;
54589;SDS011;40485;53.172;5.416;2022-09-09T16:11:03;2.28;;;0.70;;
54589;SDS011;40485;53.172;5.416;2022-09-09T16:13:37;3.28;;;0.70;;
54589;SDS011;40485;53.172;5.416;2022-09-09T16:16:08;1.73;;;0.88;;
54589;SDS011;40485;53.172;5.416;2022-09-09T16:18:36;2.10;;;0.50;;
54589;SDS011;40485;53.172;5.416;2022-09-09T16:21:07;1.75;;;0.65;;
54589;SDS011;40485;53.172;5.416;2022-09-09T16:23:37;2.67;;;1.00;;
54589;SDS011;40485;53.172;5.416;2022-09-09T16:26:04;2.80;;;1.10;;
54589;SDS011;40485;53.172;5.416;2022-09-09T16:28:30;1.98;;;0.82;;
54589;SDS011;40485;53.172;5.416;2022-09-09T16:30:56;1.75;;;0.95;;
54589;SDS011;40485;53.172;5.416;2022-09-09T16:33:23;4.50;;;1.27;;
54589;SDS011;40485;53.172;5.416;2022-09-09T16:35:49;2.70;;;1.20;;
54589;SDS011;40485;53.172;5.416;2022-09-09T16:38:14;3.60;;;1.23;;
54589;SDS011;40485;53.172;5.416;2022-09-09T16:40:40;2.70;;;1.35;;
54589;SDS011;40485;53.172;5.416;2022-09-09T16:43:06;2.90;;;1.58;;
54589;SDS011;40485;53.172;5.416;2022-09-09T16:45:32;3.63;;;1.50;;
54589;SDS011;40485;53.172;5.416;2022-09-09T16:47:59;3.28;;;1.25;;
54589;SDS011;40485;53.172;5.416;2022-09-09T16:50:25;2.25;;;1.10;;
54589;SDS011;40485;53.172;5.416;2022-09-09T16:52:51;2.03;;;1.20;;
54589;SDS011;40485;53.172;5.416;2022-09-09T16:55:17;4.43;;;1.77;;
54589;SDS011;40485;53.172;5.416;2022-09-09T16:57:45;2.63;;;1.38;;
54589;SDS011;40485;53.172;5.416;2022-09-09T17:00:15;3.65;;;1.30;;
54589;SDS011;40485;53.172;5.416;2022-09-09T17:02:43;3.17;;;1.23;;
54589;SDS011;40485;53.172;5.416;2022-09-09T17:05:10;4.78;;;1.60;;